Terminal Aerodrome Forecast
Issued by NWS King Salmon, AK

Home | Current Version | Previous Version | Text Only | Print | Product List | Glossary On
Versions: 1 2 3 4 5 6 7 8 9 10 11 12 13 14 15 16 17 18 19 20 21 22 23 24 25 26 27 28 29 30 31 32 33 34
000
FTAK31 PANC 180740 AAA
TAFAKN
TAF AMD
PAKN 180740Z 1808/1906 04006KT 6SM -SHRA BR FEW010 SCT020 OVC035
      TEMPO 1808/1809 BKN020 OVC080
     FM180900 VRB06KT 3SM BR SCT002 BKN030 OVC040
     FM181800 34004KT P6SM VCSH SCT020 OVC035=

USA.gov is the U.S. government's official web portal to all federal, state and local government web resources and services.